sensor_id;sensor_type;location;lat;lon;timestamp;P1;durP1;ratioP1;P2;durP2;ratioP2
14066;SDS011;7108;42.684;23.350;2023-10-13T00:01:18;181.77;;;78.63;;
14066;SDS011;7108;42.684;23.350;2023-10-13T00:03:43;165.47;;;78.13;;
14066;SDS011;7108;42.684;23.350;2023-10-13T00:06:09;165.33;;;76.17;;
14066;SDS011;7108;42.684;23.350;2023-10-13T00:08:35;161.90;;;76.30;;
14066;SDS011;7108;42.684;23.350;2023-10-13T00:11:01;172.03;;;75.83;;
14066;SDS011;7108;42.684;23.350;2023-10-13T00:13:28;179.10;;;78.47;;
14066;SDS011;7108;42.684;23.350;2023-10-13T00:15:57;190.97;;;78.67;;
14066;SDS011;7108;42.684;23.350;2023-10-13T00:18:31;159.53;;;76.23;;
14066;SDS011;7108;42.684;23.350;2023-10-13T00:21:07;152.37;;;76.70;;
14066;SDS011;7108;42.684;23.350;2023-10-13T00:23:39;136.57;;;74.60;;
14066;SDS011;7108;42.684;23.350;2023-10-13T00:26:17;155.80;;;77.47;;
14066;SDS011;7108;42.684;23.350;2023-10-13T00:29:03;190.33;;;81.00;;
14066;SDS011;7108;42.684;23.350;2023-10-13T00:31:32;164.33;;;77.00;;
14066;SDS011;7108;42.684;23.350;2023-10-13T00:34:03;179.77;;;79.00;;
14066;SDS011;7108;42.684;23.350;2023-10-13T00:36:36;173.57;;;78.27;;
14066;SDS011;7108;42.684;23.350;2023-10-13T00:39:02;191.77;;;79.63;;
14066;SDS011;7108;42.684;23.350;2023-10-13T00:41:32;179.07;;;77.63;;
14066;SDS011;7108;42.684;23.350;2023-10-13T00:44:16;147.87;;;73.40;;
14066;SDS011;7108;42.684;23.350;2023-10-13T00:46:42;136.30;;;74.00;;
14066;SDS011;7108;42.684;23.350;2023-10-13T00:49:10;157.80;;;75.97;;
14066;SDS011;7108;42.684;23.350;2023-10-13T00:51:41;157.83;;;74.27;;
14066;SDS011;7108;42.684;23.350;2023-10-13T00:54:12;162.83;;;76.70;;
14066;SDS011;7108;42.684;23.350;2023-10-13T00:56:39;161.33;;;75.87;;
14066;SDS011;7108;42.684;23.350;2023-10-13T00:59:12;156.27;;;75.50;;
14066;SDS011;7108;42.684;23.350;2023-10-13T01:01:39;151.70;;;76.87;;
14066;SDS011;7108;42.684;23.350;2023-10-13T01:04:07;154.47;;;74.30;;
14066;SDS011;7108;42.684;23.350;2023-10-13T01:06:37;166.20;;;76.83;;
14066;SDS011;7108;42.684;23.350;2023-10-13T01:09:06;205.40;;;82.00;;
14066;SDS011;7108;42.684;23.350;2023-10-13T01:11:42;154.60;;;76.13;;
14066;SDS011;7108;42.684;23.350;2023-10-13T01:14:20;142.90;;;75.53;;
14066;SDS011;7108;42.684;23.350;2023-10-13T01:16:48;163.43;;;77.10;;
14066;SDS011;7108;42.684;23.350;2023-10-13T01:19:18;150.00;;;75.70;;
14066;SDS011;7108;42.684;23.350;2023-10-13T01:21:47;166.23;;;77.07;;
14066;SDS011;7108;42.684;23.350;2023-10-13T01:24:19;151.43;;;75.23;;
14066;SDS011;7108;42.684;23.350;2023-10-13T01:26:49;141.93;;;73.90;;
14066;SDS011;7108;42.684;23.350;2023-10-13T01:29:16;154.37;;;73.77;;
14066;SDS011;7108;42.684;23.350;2023-10-13T01:31:44;164.17;;;76.27;;
14066;SDS011;7108;42.684;23.350;2023-10-13T01:34:17;164.43;;;75.97;;
14066;SDS011;7108;42.684;23.350;2023-10-13T01:36:50;160.30;;;75.23;;
14066;SDS011;7108;42.684;23.350;2023-10-13T01:39:19;137.23;;;72.83;;
14066;SDS011;7108;42.684;23.350;2023-10-13T01:41:45;155.13;;;74.23;;
14066;SDS011;7108;42.684;23.350;2023-10-13T01:44:11;156.47;;;75.17;;
14066;SDS011;7108;42.684;23.350;2023-10-13T01:46:37;165.97;;;77.47;;
14066;SDS011;7108;42.684;23.350;2023-10-13T01:49:03;202.53;;;80.80;;
14066;SDS011;7108;42.684;23.350;2023-10-13T01:51:28;163.00;;;76.73;;
14066;SDS011;7108;42.684;23.350;2023-10-13T01:53:54;190.47;;;79.23;;
14066;SDS011;7108;42.684;23.350;2023-10-13T01:56:22;133.57;;;73.87;;
14066;SDS011;7108;42.684;23.350;2023-10-13T01:58:54;168.00;;;79.57;;
14066;SDS011;7108;42.684;23.350;2023-10-13T02:01:19;163.67;;;76.63;;
14066;SDS011;7108;42.684;23.350;2023-10-13T02:03:55;196.93;;;81.13;;
14066;SDS011;7108;42.684;23.350;2023-10-13T02:06:31;164.47;;;77.70;;
14066;SDS011;7108;42.684;23.350;2023-10-13T02:09:07;174.80;;;76.40;;
14066;SDS011;7108;42.684;23.350;2023-10-13T02:11:37;160.70;;;76.83;;
14066;SDS011;7108;42.684;23.350;2023-10-13T02:14:05;188.13;;;78.27;;
14066;SDS011;7108;42.684;23.350;2023-10-13T02:16:31;163.53;;;77.40;;
14066;SDS011;7108;42.684;23.350;2023-10-13T02:18:57;205.00;;;82.63;;
14066;SDS011;7108;42.684;23.350;2023-10-13T02:21:29;167.37;;;76.53;;
14066;SDS011;7108;42.684;23.350;2023-10-13T02:23:57;168.53;;;77.17;;
14066;SDS011;7108;42.684;23.350;2023-10-13T02:26:34;185.20;;;80.60;;
14066;SDS011;7108;42.684;23.350;2023-10-13T02:29:04;209.30;;;84.23;;
14066;SDS011;7108;42.684;23.350;2023-10-13T02:31:36;180.47;;;81.47;;
14066;SDS011;7108;42.684;23.350;2023-10-13T02:34:03;165.73;;;78.27;;
14066;SDS011;7108;42.684;23.350;2023-10-13T02:36:35;146.93;;;73.50;;
14066;SDS011;7108;42.684;23.350;2023-10-13T02:39:04;185.83;;;80.00;;
14066;SDS011;7108;42.684;23.350;2023-10-13T02:41:33;173.57;;;77.60;;
14066;SDS011;7108;42.684;23.350;2023-10-13T02:44:03;200.37;;;81.87;;
14066;SDS011;7108;42.684;23.350;2023-10-13T02:46:33;164.60;;;79.37;;
14066;SDS011;7108;42.684;23.350;2023-10-13T02:49:04;182.23;;;79.07;;
14066;SDS011;7108;42.684;23.350;2023-10-13T02:51:40;159.37;;;78.63;;
14066;SDS011;7108;42.684;23.350;2023-10-13T02:54:08;158.33;;;77.27;;
14066;SDS011;7108;42.684;23.350;2023-10-13T02:56:37;162.77;;;78.90;;
14066;SDS011;7108;42.684;23.350;2023-10-13T02:59:03;192.30;;;82.20;;
14066;SDS011;7108;42.684;23.350;2023-10-13T03:01:32;165.00;;;78.27;;
14066;SDS011;7108;42.684;23.350;2023-10-13T03:04:02;168.00;;;77.13;;
14066;SDS011;7108;42.684;23.350;2023-10-13T03:06:28;174.10;;;78.10;;
14066;SDS011;7108;42.684;23.350;2023-10-13T03:09:07;132.83;;;72.90;;
14066;SDS011;7108;42.684;23.350;2023-10-13T03:11:43;165.60;;;77.67;;
14066;SDS011;7108;42.684;23.350;2023-10-13T03:14:16;157.93;;;78.17;;
14066;SDS011;7108;42.684;23.350;2023-10-13T03:17:02;181.87;;;77.77;;
14066;SDS011;7108;42.684;23.350;2023-10-13T03:19:31;150.83;;;75.87;;
14066;SDS011;7108;42.684;23.350;2023-10-13T03:22:02;177.27;;;78.17;;
14066;SDS011;7108;42.684;23.350;2023-10-13T03:24:41;174.33;;;80.93;;
14066;SDS011;7108;42.684;23.350;2023-10-13T03:27:18;164.40;;;77.13;;
14066;SDS011;7108;42.684;23.350;2023-10-13T03:29:49;155.37;;;75.60;;
14066;SDS011;7108;42.684;23.350;2023-10-13T03:32:21;148.17;;;77.43;;
14066;SDS011;7108;42.684;23.350;2023-10-13T03:34:51;159.40;;;77.97;;
14066;SDS011;7108;42.684;23.350;2023-10-13T03:37:37;194.20;;;85.00;;
14066;SDS011;7108;42.684;23.350;2023-10-13T03:40:04;192.83;;;80.67;;
14066;SDS011;7108;42.684;23.350;2023-10-13T03:42:49;150.33;;;77.03;;
14066;SDS011;7108;42.684;23.350;2023-10-13T03:45:31;164.10;;;76.83;;
14066;SDS011;7108;42.684;23.350;2023-10-13T03:48:04;188.27;;;79.30;;
14066;SDS011;7108;42.684;23.350;2023-10-13T03:51:06;166.40;;;75.47;;
14066;SDS011;7108;42.684;23.350;2023-10-13T03:53:41;166.93;;;77.20;;
14066;SDS011;7108;42.684;23.350;2023-10-13T03:56:20;154.50;;;75.33;;
14066;SDS011;7108;42.684;23.350;2023-10-13T03:59:05;155.60;;;74.07;;
14066;SDS011;7108;42.684;23.350;2023-10-13T04:01:34;153.13;;;74.83;;
14066;SDS011;7108;42.684;23.350;2023-10-13T04:04:23;161.47;;;76.20;;
14066;SDS011;7108;42.684;23.350;2023-10-13T04:06:55;186.40;;;80.43;;
14066;SDS011;7108;42.684;23.350;2023-10-13T04:09:38;172.63;;;79.97;;
14066;SDS011;7108;42.684;23.350;2023-10-13T04:12:08;167.07;;;77.17;;
14066;SDS011;7108;42.684;23.350;2023-10-13T04:14:39;167.70;;;79.40;;
14066;SDS011;7108;42.684;23.350;2023-10-13T04:17:25;160.47;;;78.07;;
14066;SDS011;7108;42.684;23.350;2023-10-13T04:19:54;192.07;;;82.97;;
14066;SDS011;7108;42.684;23.350;2023-10-13T04:22:35;164.13;;;78.23;;
14066;SDS011;7108;42.684;23.350;2023-10-13T04:25:23;182.90;;;81.97;;
14066;SDS011;7108;42.684;23.350;2023-10-13T04:30:42;174.37;;;81.37;;
14066;SDS011;7108;42.684;23.350;2023-10-13T04:33:23;145.70;;;77.83;;
14066;SDS011;7108;42.684;23.350;2023-10-13T04:36:12;207.43;;;86.00;;
14066;SDS011;7108;42.684;23.350;2023-10-13T04:38:47;177.63;;;82.73;;
14066;SDS011;7108;42.684;23.350;2023-10-13T04:41:40;157.80;;;79.90;;
14066;SDS011;7108;42.684;23.350;2023-10-13T04:44:22;163.43;;;80.03;;
14066;SDS011;7108;42.684;23.350;2023-10-13T04:47:05;182.20;;;83.60;;
14066;SDS011;7108;42.684;23.350;2023-10-13T04:49:40;179.67;;;80.90;;
14066;SDS011;7108;42.684;23.350;2023-10-13T04:52:09;184.23;;;87.03;;
14066;SDS011;7108;42.684;23.350;2023-10-13T04:54:44;277.83;;;134.73;;
14066;SDS011;7108;42.684;23.350;2023-10-13T04:57:14;190.37;;;86.10;;
14066;SDS011;7108;42.684;23.350;2023-10-13T05:00:01;169.53;;;80.27;;
14066;SDS011;7108;42.684;23.350;2023-10-13T05:02:31;161.00;;;77.30;;
14066;SDS011;7108;42.684;23.350;2023-10-13T05:04:57;171.37;;;78.23;;
14066;SDS011;7108;42.684;23.350;2023-10-13T05:07:42;190.87;;;83.13;;
14066;SDS011;7108;42.684;23.350;2023-10-13T05:10:27;166.70;;;78.70;;
14066;SDS011;7108;42.684;23.350;2023-10-13T05:13:11;144.67;;;77.63;;
14066;SDS011;7108;42.684;23.350;2023-10-13T05:15:55;191.73;;;80.77;;
14066;SDS011;7108;42.684;23.350;2023-10-13T05:18:39;184.40;;;80.50;;
14066;SDS011;7108;42.684;23.350;2023-10-13T05:21:23;159.50;;;76.73;;
14066;SDS011;7108;42.684;23.350;2023-10-13T05:24:07;206.13;;;83.80;;
14066;SDS011;7108;42.684;23.350;2023-10-13T05:26:52;166.73;;;76.63;;
14066;SDS011;7108;42.684;23.350;2023-10-13T05:29:43;175.87;;;78.27;;
14066;SDS011;7108;42.684;23.350;2023-10-13T05:32:28;175.40;;;79.93;;
14066;SDS011;7108;42.684;23.350;2023-10-13T05:35:13;174.80;;;78.90;;
14066;SDS011;7108;42.684;23.350;2023-10-13T05:37:57;183.67;;;81.17;;
14066;SDS011;7108;42.684;23.350;2023-10-13T05:40:57;186.43;;;81.33;;
14066;SDS011;7108;42.684;23.350;2023-10-13T05:43:45;175.60;;;79.07;;
14066;SDS011;7108;42.684;23.350;2023-10-13T05:46:31;171.70;;;77.97;;
14066;SDS011;7108;42.684;23.350;2023-10-13T05:49:14;176.23;;;76.80;;
14066;SDS011;7108;42.684;23.350;2023-10-13T05:51:43;172.03;;;75.67;;
14066;SDS011;7108;42.684;23.350;2023-10-13T05:54:32;157.90;;;76.50;;
14066;SDS011;7108;42.684;23.350;2023-10-13T05:57:16;172.10;;;75.97;;
14066;SDS011;7108;42.684;23.350;2023-10-13T06:00:05;208.20;;;81.63;;
14066;SDS011;7108;42.684;23.350;2023-10-13T06:02:49;149.83;;;73.23;;
14066;SDS011;7108;42.684;23.350;2023-10-13T06:05:33;177.80;;;80.00;;
14066;SDS011;7108;42.684;23.350;2023-10-13T06:08:17;175.17;;;77.93;;
14066;SDS011;7108;42.684;23.350;2023-10-13T06:11:01;309.03;;;154.57;;
14066;SDS011;7108;42.684;23.350;2023-10-13T06:13:46;178.60;;;85.37;;
14066;SDS011;7108;42.684;23.350;2023-10-13T06:16:31;176.27;;;79.03;;
14066;SDS011;7108;42.684;23.350;2023-10-13T06:19:15;182.13;;;81.03;;
14066;SDS011;7108;42.684;23.350;2023-10-13T06:21:59;200.77;;;82.40;;
14066;SDS011;7108;42.684;23.350;2023-10-13T06:24:43;171.23;;;79.83;;
14066;SDS011;7108;42.684;23.350;2023-10-13T06:27:26;174.33;;;79.47;;
14066;SDS011;7108;42.684;23.350;2023-10-13T06:30:10;194.37;;;82.70;;
14066;SDS011;7108;42.684;23.350;2023-10-13T06:32:37;170.07;;;77.40;;
14066;SDS011;7108;42.684;23.350;2023-10-13T06:35:05;181.80;;;79.37;;
14066;SDS011;7108;42.684;23.350;2023-10-13T06:37:36;184.67;;;80.87;;
14066;SDS011;7108;42.684;23.350;2023-10-13T06:40:09;203.53;;;84.40;;
14066;SDS011;7108;42.684;23.350;2023-10-13T06:42:59;193.10;;;86.17;;
14066;SDS011;7108;42.684;23.350;2023-10-13T06:45:41;166.00;;;84.33;;
14066;SDS011;7108;42.684;23.350;2023-10-13T06:48:24;173.27;;;84.20;;
14066;SDS011;7108;42.684;23.350;2023-10-13T06:50:50;160.73;;;80.67;;
14066;SDS011;7108;42.684;23.350;2023-10-13T06:53:17;198.17;;;88.30;;
14066;SDS011;7108;42.684;23.350;2023-10-13T06:55:46;199.77;;;92.63;;
14066;SDS011;7108;42.684;23.350;2023-10-13T06:58:17;206.87;;;99.47;;
14066;SDS011;7108;42.684;23.350;2023-10-13T07:00:48;193.20;;;103.60;;
14066;SDS011;7108;42.684;23.350;2023-10-13T07:03:23;179.20;;;96.63;;
14066;SDS011;7108;42.684;23.350;2023-10-13T07:05:50;178.60;;;89.47;;
14066;SDS011;7108;42.684;23.350;2023-10-13T07:08:16;185.83;;;87.67;;
14066;SDS011;7108;42.684;23.350;2023-10-13T07:10:48;190.67;;;90.63;;
14066;SDS011;7108;42.684;23.350;2023-10-13T07:13:16;195.03;;;92.90;;
14066;SDS011;7108;42.684;23.350;2023-10-13T07:15:42;164.70;;;87.73;;
14066;SDS011;7108;42.684;23.350;2023-10-13T07:18:14;206.47;;;95.53;;
14066;SDS011;7108;42.684;23.350;2023-10-13T07:20:42;169.57;;;86.97;;
14066;SDS011;7108;42.684;23.350;2023-10-13T07:23:11;196.73;;;90.00;;
14066;SDS011;7108;42.684;23.350;2023-10-13T07:25:43;197.57;;;90.27;;
14066;SDS011;7108;42.684;23.350;2023-10-13T07:28:17;198.80;;;94.13;;
14066;SDS011;7108;42.684;23.350;2023-10-13T07:30:42;203.13;;;97.47;;
14066;SDS011;7108;42.684;23.350;2023-10-13T07:33:20;168.97;;;90.00;;
14066;SDS011;7108;42.684;23.350;2023-10-13T07:35:45;188.73;;;95.93;;
14066;SDS011;7108;42.684;23.350;2023-10-13T07:38:15;200.00;;;97.27;;
14066;SDS011;7108;42.684;23.350;2023-10-13T07:40:41;211.27;;;104.37;;
14066;SDS011;7108;42.684;23.350;2023-10-13T07:43:07;211.53;;;105.97;;
14066;SDS011;7108;42.684;23.350;2023-10-13T07:45:36;228.47;;;109.30;;
14066;SDS011;7108;42.684;23.350;2023-10-13T07:48:03;251.50;;;112.03;;
14066;SDS011;7108;42.684;23.350;2023-10-13T07:50:37;219.03;;;109.37;;
14066;SDS011;7108;42.684;23.350;2023-10-13T07:53:03;216.13;;;107.47;;
14066;SDS011;7108;42.684;23.350;2023-10-13T07:55:45;226.97;;;112.77;;
14066;SDS011;7108;42.684;23.350;2023-10-13T07:58:12;243.23;;;113.60;;
14066;SDS011;7108;42.684;23.350;2023-10-13T08:00:39;239.47;;;112.37;;
14066;SDS011;7108;42.684;23.350;2023-10-13T08:03:10;210.70;;;103.70;;
14066;SDS011;7108;42.684;23.350;2023-10-13T08:05:45;204.60;;;104.37;;
14066;SDS011;7108;42.684;23.350;2023-10-13T08:08:30;236.53;;;111.77;;
14066;SDS011;7108;42.684;23.350;2023-10-13T08:13:36;221.90;;;110.00;;
14066;SDS011;7108;42.684;23.350;2023-10-13T08:16:11;176.40;;;100.37;;
14066;SDS011;7108;42.684;23.350;2023-10-13T08:18:46;204.67;;;103.60;;
14066;SDS011;7108;42.684;23.350;2023-10-13T08:21:15;186.63;;;101.43;;
14066;SDS011;7108;42.684;23.350;2023-10-13T08:23:59;217.73;;;105.63;;
14066;SDS011;7108;42.684;23.350;2023-10-13T08:26:31;194.47;;;104.33;;
14066;SDS011;7108;42.684;23.350;2023-10-13T08:29:03;196.33;;;100.97;;
14066;SDS011;7108;42.684;23.350;2023-10-13T08:31:47;212.87;;;104.03;;
14066;SDS011;7108;42.684;23.350;2023-10-13T08:34:35;206.03;;;104.67;;
14066;SDS011;7108;42.684;23.350;2023-10-13T08:37:28;179.23;;;102.10;;
14066;SDS011;7108;42.684;23.350;2023-10-13T08:39:58;267.10;;;113.77;;
14066;SDS011;7108;42.684;23.350;2023-10-13T08:42:34;248.23;;;112.90;;
14066;SDS011;7108;42.684;23.350;2023-10-13T08:47:54;223.80;;;108.50;;
14066;SDS011;7108;42.684;23.350;2023-10-13T08:50:47;211.13;;;105.90;;
14066;SDS011;7108;42.684;23.350;2023-10-13T08:53:17;226.77;;;108.07;;
14066;SDS011;7108;42.684;23.350;2023-10-13T08:55:59;211.13;;;104.50;;
14066;SDS011;7108;42.684;23.350;2023-10-13T08:58:38;230.07;;;108.43;;
14066;SDS011;7108;42.684;23.350;2023-10-13T09:04:03;251.63;;;112.20;;
14066;SDS011;7108;42.684;23.350;2023-10-13T09:07:06;261.77;;;109.83;;
14066;SDS011;7108;42.684;23.350;2023-10-13T09:09:49;238.97;;;107.33;;
14066;SDS011;7108;42.684;23.350;2023-10-13T09:12:21;232.33;;;109.27;;
14066;SDS011;7108;42.684;23.350;2023-10-13T09:15:03;245.40;;;110.40;;
14066;SDS011;7108;42.684;23.350;2023-10-13T09:17:47;308.97;;;145.47;;
14066;SDS011;7108;42.684;23.350;2023-10-13T09:20:38;240.80;;;113.80;;
14066;SDS011;7108;42.684;23.350;2023-10-13T09:25:38;224.07;;;109.27;;
14066;SDS011;7108;42.684;23.350;2023-10-13T09:28:18;213.17;;;107.70;;
14066;SDS011;7108;42.684;23.350;2023-10-13T09:30:46;207.43;;;105.47;;
14066;SDS011;7108;42.684;23.350;2023-10-13T09:33:13;229.93;;;106.83;;
14066;SDS011;7108;42.684;23.350;2023-10-13T09:35:44;235.00;;;107.10;;
14066;SDS011;7108;42.684;23.350;2023-10-13T09:38:16;255.83;;;111.20;;
14066;SDS011;7108;42.684;23.350;2023-10-13T09:40:42;226.83;;;104.43;;
14066;SDS011;7108;42.684;23.350;2023-10-13T09:43:37;222.60;;;102.73;;
14066;SDS011;7108;42.684;23.350;2023-10-13T09:46:03;230.67;;;104.30;;
14066;SDS011;7108;42.684;23.350;2023-10-13T09:51:00;272.17;;;111.00;;
14066;SDS011;7108;42.684;23.350;2023-10-13T09:53:29;222.40;;;103.93;;
14066;SDS011;7108;42.684;23.350;2023-10-13T09:55:59;217.50;;;99.83;;
14066;SDS011;7108;42.684;23.350;2023-10-13T09:58:38;226.13;;;101.10;;
14066;SDS011;7108;42.684;23.350;2023-10-13T10:01:12;250.90;;;110.00;;
14066;SDS011;7108;42.684;23.350;2023-10-13T10:03:50;211.07;;;99.87;;
14066;SDS011;7108;42.684;23.350;2023-10-13T10:06:26;185.00;;;92.63;;
14066;SDS011;7108;42.684;23.350;2023-10-13T10:09:05;241.97;;;102.60;;
14066;SDS011;7108;42.684;23.350;2023-10-13T10:19:33;231.67;;;102.37;;
14066;SDS011;7108;42.684;23.350;2023-10-13T10:22:04;253.57;;;103.03;;
14066;SDS011;7108;42.684;23.350;2023-10-13T10:24:41;222.60;;;98.13;;
14066;SDS011;7108;42.684;23.350;2023-10-13T10:27:24;209.40;;;93.03;;
14066;SDS011;7108;42.684;23.350;2023-10-13T10:29:53;225.67;;;98.03;;
14066;SDS011;7108;42.684;23.350;2023-10-13T10:32:19;212.47;;;98.43;;
14066;SDS011;7108;42.684;23.350;2023-10-13T10:34:44;207.30;;;94.47;;
14066;SDS011;7108;42.684;23.350;2023-10-13T10:37:16;217.03;;;93.90;;
14066;SDS011;7108;42.684;23.350;2023-10-13T10:39:45;190.50;;;91.03;;
14066;SDS011;7108;42.684;23.350;2023-10-13T10:42:11;207.53;;;93.67;;
14066;SDS011;7108;42.684;23.350;2023-10-13T10:44:41;203.50;;;91.90;;
14066;SDS011;7108;42.684;23.350;2023-10-13T10:47:17;250.50;;;100.43;;
14066;SDS011;7108;42.684;23.350;2023-10-13T10:50:02;228.87;;;95.70;;
14066;SDS011;7108;42.684;23.350;2023-10-13T10:52:44;242.93;;;94.27;;
14066;SDS011;7108;42.684;23.350;2023-10-13T10:55:11;219.43;;;96.07;;
14066;SDS011;7108;42.684;23.350;2023-10-13T10:57:42;198.13;;;89.70;;
14066;SDS011;7108;42.684;23.350;2023-10-13T11:00:20;218.37;;;92.77;;
14066;SDS011;7108;42.684;23.350;2023-10-13T11:02:58;240.13;;;103.17;;
14066;SDS011;7108;42.684;23.350;2023-10-13T11:05:24;192.47;;;89.07;;
14066;SDS011;7108;42.684;23.350;2023-10-13T11:07:57;236.00;;;96.97;;
14066;SDS011;7108;42.684;23.350;2023-10-13T11:10:23;158.43;;;84.47;;
14066;SDS011;7108;42.684;23.350;2023-10-13T11:12:57;201.30;;;92.37;;
14066;SDS011;7108;42.684;23.350;2023-10-13T11:15:47;172.83;;;82.07;;
14066;SDS011;7108;42.684;23.350;2023-10-13T11:18:13;202.20;;;91.07;;
14066;SDS011;7108;42.684;23.350;2023-10-13T11:20:46;169.63;;;85.00;;
14066;SDS011;7108;42.684;23.350;2023-10-13T11:23:15;181.33;;;88.47;;
14066;SDS011;7108;42.684;23.350;2023-10-13T11:25:41;193.63;;;89.80;;
14066;SDS011;7108;42.684;23.350;2023-10-13T11:28:16;203.97;;;90.70;;
14066;SDS011;7108;42.684;23.350;2023-10-13T11:30:43;176.97;;;87.80;;
14066;SDS011;7108;42.684;23.350;2023-10-13T11:33:17;160.47;;;83.60;;
14066;SDS011;7108;42.684;23.350;2023-10-13T11:35:48;191.17;;;87.73;;
14066;SDS011;7108;42.684;23.350;2023-10-13T11:40:52;199.77;;;91.47;;
14066;SDS011;7108;42.684;23.350;2023-10-13T11:46:12;200.97;;;89.20;;
14066;SDS011;7108;42.684;23.350;2023-10-13T11:48:41;183.07;;;87.30;;
14066;SDS011;7108;42.684;23.350;2023-10-13T11:51:11;208.00;;;91.37;;
14066;SDS011;7108;42.684;23.350;2023-10-13T11:53:42;183.63;;;86.40;;
14066;SDS011;7108;42.684;23.350;2023-10-13T11:56:09;191.67;;;87.77;;
14066;SDS011;7108;42.684;23.350;2023-10-13T11:58:35;163.50;;;83.07;;
14066;SDS011;7108;42.684;23.350;2023-10-13T12:01:05;224.97;;;102.70;;
14066;SDS011;7108;42.684;23.350;2023-10-13T12:03:38;200.60;;;93.67;;
14066;SDS011;7108;42.684;23.350;2023-10-13T12:06:40;185.67;;;84.33;;
14066;SDS011;7108;42.684;23.350;2023-10-13T12:09:06;178.07;;;82.60;;
14066;SDS011;7108;42.684;23.350;2023-10-13T12:11:56;194.90;;;85.10;;
14066;SDS011;7108;42.684;23.350;2023-10-13T12:14:25;187.50;;;89.30;;
14066;SDS011;7108;42.684;23.350;2023-10-13T12:17:05;189.30;;;86.07;;
14066;SDS011;7108;42.684;23.350;2023-10-13T12:19:35;158.57;;;82.30;;
14066;SDS011;7108;42.684;23.350;2023-10-13T12:22:01;199.67;;;87.53;;
14066;SDS011;7108;42.684;23.350;2023-10-13T12:24:33;183.30;;;86.90;;
14066;SDS011;7108;42.684;23.350;2023-10-13T12:27:01;199.30;;;87.60;;
14066;SDS011;7108;42.684;23.350;2023-10-13T12:29:27;185.23;;;85.40;;
14066;SDS011;7108;42.684;23.350;2023-10-13T12:31:56;173.63;;;86.03;;
14066;SDS011;7108;42.684;23.350;2023-10-13T12:34:37;192.03;;;87.83;;
14066;SDS011;7108;42.684;23.350;2023-10-13T12:37:22;165.40;;;83.27;;
14066;SDS011;7108;42.684;23.350;2023-10-13T12:40:07;194.57;;;84.90;;
14066;SDS011;7108;42.684;23.350;2023-10-13T12:42:53;189.43;;;88.67;;
14066;SDS011;7108;42.684;23.350;2023-10-13T12:45:41;183.10;;;89.53;;
14066;SDS011;7108;42.684;23.350;2023-10-13T12:48:26;185.40;;;88.23;;
14066;SDS011;7108;42.684;23.350;2023-10-13T12:51:10;212.23;;;94.00;;
14066;SDS011;7108;42.684;23.350;2023-10-13T12:53:54;177.20;;;86.33;;
14066;SDS011;7108;42.684;23.350;2023-10-13T12:56:27;180.47;;;87.90;;
14066;SDS011;7108;42.684;23.350;2023-10-13T12:58:53;158.33;;;84.20;;
14066;SDS011;7108;42.684;23.350;2023-10-13T13:01:20;187.60;;;90.27;;
14066;SDS011;7108;42.684;23.350;2023-10-13T13:03:58;179.10;;;85.77;;
14066;SDS011;7108;42.684;23.350;2023-10-13T13:06:24;181.67;;;84.73;;
14066;SDS011;7108;42.684;23.350;2023-10-13T13:08:54;172.67;;;84.20;;
14066;SDS011;7108;42.684;23.350;2023-10-13T13:11:20;172.30;;;83.43;;
14066;SDS011;7108;42.684;23.350;2023-10-13T13:13:46;176.47;;;84.77;;
14066;SDS011;7108;42.684;23.350;2023-10-13T13:16:15;196.30;;;88.13;;
14066;SDS011;7108;42.684;23.350;2023-10-13T13:18:48;167.47;;;84.73;;
14066;SDS011;7108;42.684;23.350;2023-10-13T13:21:19;189.93;;;85.00;;
14066;SDS011;7108;42.684;23.350;2023-10-13T13:23:48;175.97;;;83.57;;
14066;SDS011;7108;42.684;23.350;2023-10-13T13:26:14;167.93;;;82.40;;
14066;SDS011;7108;42.684;23.350;2023-10-13T13:28:43;183.80;;;85.10;;
14066;SDS011;7108;42.684;23.350;2023-10-13T13:31:09;195.73;;;86.30;;
14066;SDS011;7108;42.684;23.350;2023-10-13T13:33:37;170.63;;;82.90;;
14066;SDS011;7108;42.684;23.350;2023-10-13T13:36:08;199.30;;;97.03;;
14066;SDS011;7108;42.684;23.350;2023-10-13T13:38:38;189.37;;;89.17;;
14066;SDS011;7108;42.684;23.350;2023-10-13T13:41:05;188.10;;;87.93;;
14066;SDS011;7108;42.684;23.350;2023-10-13T13:43:40;175.33;;;86.27;;
14066;SDS011;7108;42.684;23.350;2023-10-13T13:46:17;208.63;;;92.37;;
14066;SDS011;7108;42.684;23.350;2023-10-13T13:48:43;171.87;;;85.03;;
14066;SDS011;7108;42.684;23.350;2023-10-13T13:51:09;194.67;;;90.83;;
14066;SDS011;7108;42.684;23.350;2023-10-13T13:53:40;154.53;;;86.40;;
14066;SDS011;7108;42.684;23.350;2023-10-13T13:56:10;205.77;;;89.90;;
14066;SDS011;7108;42.684;23.350;2023-10-13T13:58:35;189.87;;;88.33;;
14066;SDS011;7108;42.684;23.350;2023-10-13T14:01:03;207.73;;;92.60;;
14066;SDS011;7108;42.684;23.350;2023-10-13T14:03:39;184.43;;;86.90;;
14066;SDS011;7108;42.684;23.350;2023-10-13T14:06:15;180.30;;;85.80;;
14066;SDS011;7108;42.684;23.350;2023-10-13T14:08:48;171.93;;;85.93;;
14066;SDS011;7108;42.684;23.350;2023-10-13T14:11:21;171.83;;;87.07;;
14066;SDS011;7108;42.684;23.350;2023-10-13T14:14:03;186.63;;;90.27;;
14066;SDS011;7108;42.684;23.350;2023-10-13T14:16:42;195.23;;;90.57;;
14066;SDS011;7108;42.684;23.350;2023-10-13T14:19:12;252.73;;;95.27;;
14066;SDS011;7108;42.684;23.350;2023-10-13T14:21:53;191.80;;;89.87;;
14066;SDS011;7108;42.684;23.350;2023-10-13T14:24:22;212.57;;;93.13;;
14066;SDS011;7108;42.684;23.350;2023-10-13T14:27:14;245.30;;;96.73;;
14066;SDS011;7108;42.684;23.350;2023-10-13T14:29:44;206.03;;;98.83;;
14066;SDS011;7108;42.684;23.350;2023-10-13T14:32:10;223.77;;;93.83;;
14066;SDS011;7108;42.684;23.350;2023-10-13T14:34:49;203.33;;;90.13;;
14066;SDS011;7108;42.684;23.350;2023-10-13T14:37:19;214.97;;;91.47;;
14066;SDS011;7108;42.684;23.350;2023-10-13T14:40:06;236.47;;;96.87;;
14066;SDS011;7108;42.684;23.350;2023-10-13T14:42:37;222.90;;;92.63;;
14066;SDS011;7108;42.684;23.350;2023-10-13T14:45:05;206.50;;;94.43;;
14066;SDS011;7108;42.684;23.350;2023-10-13T14:47:43;225.23;;;115.00;;
14066;SDS011;7108;42.684;23.350;2023-10-13T14:50:09;260.90;;;105.73;;
14066;SDS011;7108;42.684;23.350;2023-10-13T14:52:45;231.27;;;100.80;;
14066;SDS011;7108;42.684;23.350;2023-10-13T14:55:11;205.20;;;92.37;;
14066;SDS011;7108;42.684;23.350;2023-10-13T14:57:49;214.00;;;99.67;;
14066;SDS011;7108;42.684;23.350;2023-10-13T15:00:18;221.37;;;96.60;;
14066;SDS011;7108;42.684;23.350;2023-10-13T15:02:53;214.53;;;95.37;;
14066;SDS011;7108;42.684;23.350;2023-10-13T15:05:19;237.07;;;98.63;;
14066;SDS011;7108;42.684;23.350;2023-10-13T15:07:51;193.20;;;90.37;;
14066;SDS011;7108;42.684;23.350;2023-10-13T15:10:16;213.50;;;95.43;;
14066;SDS011;7108;42.684;23.350;2023-10-13T15:12:45;226.03;;;99.70;;
14066;SDS011;7108;42.684;23.350;2023-10-13T15:15:10;225.27;;;96.73;;